Time;durP1;ratioP1;P1;durP2;ratioP2;P2;SDS_P1;SDS_P2;PMS_P1;PMS_P2;Temp;Humidity;BMP_temperature;BMP_pressure;BME280_temperature;BME280_humidity;BME280_pressure;Samples;Min_cycle;Max_cycle;Signal;HPM_P1;HPM_P2
2021/08/29 00:02:19;;;;;;;14.20;13.00;;;12.10;99.90;;;;;;4904978;29;20292;-77
2021/08/29 00:04:45;;;;;;;13.50;12.40;;;12.10;99.90;;;;;;4906256;29;20256;-77
2021/08/29 00:07:12;;;;;;;13.30;12.40;;;12.00;99.90;;;;;;4904826;29;20221;-77
2021/08/29 00:09:40;;;;;;;13.90;12.87;;;12.00;99.90;;;;;;4904848;29;20206;-78
2021/08/29 00:12:09;;;;;;;13.40;12.40;;;12.00;99.90;;;;;;4904943;29;20443;-77
2021/08/29 00:14:35;;;;;;;13.70;12.70;;;12.00;99.90;;;;;;4904785;29;20684;-78
2021/08/29 00:17:02;;;;;;;13.87;12.87;;;12.00;99.90;;;;;;4904814;29;20226;-77
2021/08/29 00:19:29;;;;;;;14.77;13.67;;;12.00;99.90;;;;;;4905125;29;20200;-78
2021/08/29 00:21:56;;;;;;;13.27;12.37;;;11.90;99.90;;;;;;4905494;29;20209;-77
2021/08/29 00:24:23;;;;;;;13.70;12.70;;;11.90;99.90;;;;;;4911899;29;20587;-77
2021/08/29 00:26:50;;;;;;;13.70;12.80;;;11.90;99.90;;;;;;4904754;29;20757;-77
2021/08/29 00:29:18;;;;;;;14.30;13.30;;;11.90;99.90;;;;;;4903109;29;20265;-78
2021/08/29 00:31:44;;;;;;;13.17;12.27;;;11.90;99.90;;;;;;4907145;29;20267;-78
2021/08/29 00:34:11;;;;;;;13.33;12.33;;;11.90;99.90;;;;;;4908615;29;20200;-77
2021/08/29 00:36:38;;;;;;;13.77;12.77;;;11.80;99.90;;;;;;4902518;29;20229;-77
2021/08/29 00:39:05;;;;;;;13.67;12.67;;;11.80;99.90;;;;;;4907352;29;20211;-77
2021/08/29 00:41:33;;;;;;;13.80;12.80;;;11.90;99.90;;;;;;4901924;29;20215;-77
2021/08/29 00:44:01;;;;;;;14.47;13.33;;;11.90;99.90;;;;;;4902021;29;20200;-78
2021/08/29 00:46:31;;;;;;;13.57;12.60;;;11.90;99.90;;;;;;4903463;29;20243;-78
2021/08/29 00:48:58;;;;;;;14.20;13.20;;;11.90;99.90;;;;;;4905906;29;20207;-78
2021/08/29 00:51:25;;;;;;;15.17;13.97;;;11.90;99.90;;;;;;4908064;29;20213;-77
2021/08/29 00:53:54;;;;;;;14.63;13.53;;;12.00;99.90;;;;;;4904094;29;20684;-77
2021/08/29 00:56:24;;;;;;;14.60;13.60;;;12.00;99.90;;;;;;4906808;29;20799;-77
2021/08/29 00:58:52;;;;;;;14.43;13.23;;;12.00;99.90;;;;;;4905955;29;20203;-78
2021/08/29 01:01:21;;;;;;;15.53;14.43;;;12.00;99.90;;;;;;4906200;29;20204;-77
2021/08/29 01:03:52;;;;;;;13.57;12.57;;;12.00;99.90;;;;;;4902136;29;20228;-78
2021/08/29 01:06:26;;;;;;;14.27;13.10;;;12.00;99.90;;;;;;4903250;29;20226;-77
2021/08/29 01:09:17;;;;;;;14.20;13.20;;;12.00;99.90;;;;;;4907312;29;20681;-77
2021/08/29 01:11:48;;;;;;;14.07;13.07;;;12.10;99.90;;;;;;4910701;29;20730;-77
2021/08/29 01:14:23;;;;;;;13.70;12.70;;;12.10;99.90;;;;;;4902958;29;20216;-77
2021/08/29 01:16:53;;;;;;;13.63;12.70;;;12.10;99.90;;;;;;4905960;29;20228;-77
2021/08/29 01:19:32;;;;;;;13.97;12.97;;;12.10;99.90;;;;;;4905921;29;20208;-77
2021/08/29 01:22:04;;;;;;;13.47;12.50;;;12.10;99.90;;;;;;4923575;29;20426;-77
2021/08/29 01:24:32;;;;;;;13.23;12.30;;;12.20;99.90;;;;;;4906608;29;20198;-78
2021/08/29 01:27:09;;;;;;;14.03;13.07;;;12.20;99.90;;;;;;4905620;29;20219;-78
2021/08/29 01:29:37;;;;;;;13.57;12.57;;;12.20;99.90;;;;;;4905281;29;20569;-78
2021/08/29 01:32:10;;;;;;;11.40;10.60;;;12.20;99.90;;;;;;4907669;29;20217;-77
2021/08/29 01:34:43;;;;;;;13.60;12.60;;;12.20;99.90;;;;;;4910613;29;20280;-78
2021/08/29 01:37:22;;;;;;;6.90;6.20;;;12.20;99.90;;;;;;4902646;29;20590;-78
2021/08/29 01:39:50;;;;;;;6.00;5.33;;;12.30;99.90;;;;;;4899423;29;20294;-78
2021/08/29 01:42:25;;;;;;;6.63;6.00;;;12.30;99.90;;;;;;4907760;29;20293;-78
2021/08/29 01:44:54;;;;;;;6.00;5.40;;;12.30;99.90;;;;;;4911242;29;20203;-78
2021/08/29 01:47:22;;;;;;;7.27;5.67;;;12.30;99.90;;;;;;4906004;29;20224;-77
2021/08/29 01:49:50;;;;;;;7.20;6.30;;;12.30;99.90;;;;;;4903475;29;20229;-78
2021/08/29 01:52:18;;;;;;;6.57;5.87;;;12.30;99.90;;;;;;4905491;29;20217;-77
2021/08/29 01:55:06;;;;;;;6.53;5.50;;;12.30;99.90;;;;;;4901537;29;20221;-78
2021/08/29 01:57:43;;;;;;;11.50;5.90;;;12.30;99.90;;;;;;4909717;29;20237;-77
2021/08/29 02:00:21;;;;;;;6.20;5.60;;;12.30;99.90;;;;;;4902734;29;20215;-78
2021/08/29 02:02:48;;;;;;;9.77;8.87;;;12.30;99.90;;;;;;4909709;29;20209;-77
2021/08/29 02:05:15;;;;;;;6.80;5.97;;;12.30;99.90;;;;;;4909001;29;20202;-78
2021/08/29 02:07:48;;;;;;;7.23;5.90;;;12.30;99.90;;;;;;4906502;29;20666;-77
2021/08/29 02:10:34;;;;;;;6.87;6.17;;;12.40;99.90;;;;;;4908188;29;20236;-77
2021/08/29 02:13:20;;;;;;;7.67;6.20;;;12.40;99.90;;;;;;4910371;29;20230;-78
2021/08/29 02:15:56;;;;;;;6.37;5.77;;;12.40;99.90;;;;;;4908567;29;20233;-76
2021/08/29 02:18:25;;;;;;;6.80;5.73;;;12.30;99.90;;;;;;4908362;29;20281;-77
2021/08/29 02:20:53;;;;;;;6.80;6.10;;;12.30;99.90;;;;;;4905232;29;20545;-78
2021/08/29 02:23:23;;;;;;;6.53;5.87;;;12.30;99.90;;;;;;4905391;29;20217;-78
2021/08/29 02:25:51;;;;;;;6.63;6.03;;;12.30;99.90;;;;;;4901844;29;20697;-78
2021/08/29 02:28:19;;;;;;;7.43;6.43;;;12.30;99.90;;;;;;4909650;29;20232;-78
2021/08/29 02:30:48;;;;;;;6.63;5.80;;;12.20;99.90;;;;;;4906268;29;20229;-78
2021/08/29 02:33:18;;;;;;;8.53;6.50;;;12.20;99.90;;;;;;4908770;29;20234;-78
2021/08/29 02:35:48;;;;;;;6.63;6.03;;;12.20;99.90;;;;;;4911117;29;20253;-77
2021/08/29 02:38:19;;;;;;;6.63;5.43;;;12.20;99.90;;;;;;4908258;29;20646;-78
2021/08/29 02:40:48;;;;;;;6.27;5.67;;;12.20;99.90;;;;;;4912996;29;20201;-77
2021/08/29 02:43:19;;;;;;;7.23;6.30;;;12.20;99.90;;;;;;4909720;29;20208;-78
2021/08/29 02:45:48;;;;;;;6.83;6.07;;;12.20;99.90;;;;;;4905564;29;20681;-78
2021/08/29 02:48:22;;;;;;;7.13;5.97;;;12.20;99.90;;;;;;4912204;29;20203;-78
2021/08/29 02:50:50;;;;;;;7.63;6.80;;;12.20;99.90;;;;;;4913758;29;20252;-77
2021/08/29 02:53:20;;;;;;;6.83;6.13;;;12.20;99.90;;;;;;4915523;29;20216;-77
2021/08/29 02:58:35;;;;;;;7.37;6.63;;;12.30;99.90;;;;;;4916423;29;20217;-80
2021/08/29 03:01:49;;;;;;;8.43;6.77;;;12.30;99.90;;;;;;4912807;29;20215;-80
2021/08/29 03:04:31;;;;;;;7.30;6.60;;;12.40;99.90;;;;;;4912220;29;20218;-79
2021/08/29 03:06:59;;;;;;;8.63;7.07;;;12.40;99.90;;;;;;4910087;29;20628;-80
2021/08/29 03:09:59;;;;;;;7.97;6.37;;;12.40;99.90;;;;;;4916409;29;20296;-80
2021/08/29 03:12:34;;;;;;;7.70;6.63;;;12.40;99.90;;;;;;4915924;29;20212;-79
2021/08/29 03:16:11;;;;;;;7.90;7.10;;;12.40;99.90;;;;;;4916332;29;20197;-79
2021/08/29 03:19:43;;;;;;;7.97;6.93;;;12.40;99.90;;;;;;4816314;29;20248;-80
2021/08/29 03:49:32;;;;;;;;;;;;;;;;;;;;;
2021/08/29 03:59:55;;;;;;;7.47;6.67;;;12.40;99.90;;;;;;4850795;23;20237;-77
2021/08/29 04:02:23;;;;;;;10.10;7.97;;;12.40;99.90;;;;;;4914401;29;20201;-76
2021/08/29 04:04:51;;;;;;;10.80;7.93;;;12.30;99.90;;;;;;4904659;29;20592;-77
2021/08/29 04:07:20;;;;;;;8.97;7.53;;;12.40;99.90;;;;;;4906099;29;20205;-77
2021/08/29 04:10:10;;;;;;;8.17;7.37;;;12.40;99.90;;;;;;4910749;29;20229;-76
2021/08/29 04:12:44;;;;;;;9.23;7.47;;;12.40;99.90;;;;;;4889317;29;20201;-75
2021/08/29 04:15:47;;;;;;;8.43;7.53;;;12.40;99.90;;;;;;4921082;29;20278;-77
2021/08/29 04:18:15;;;;;;;9.60;7.93;;;12.40;99.90;;;;;;4914512;29;20225;-76
2021/08/29 04:20:45;;;;;;;8.40;7.50;;;12.40;99.90;;;;;;4901910;29;20307;-77
2021/08/29 04:23:13;;;;;;;10.33;8.90;;;12.40;99.90;;;;;;4916132;29;20204;-77
2021/08/29 04:25:40;;;;;;;15.23;14.07;;;12.40;99.90;;;;;;4900576;29;20299;-78
2021/08/29 04:28:08;;;;;;;10.57;9.57;;;12.40;99.90;;;;;;4913976;29;20262;-77
2021/08/29 04:30:36;;;;;;;15.97;14.23;;;12.40;99.90;;;;;;4915504;29;20594;-77
2021/08/29 04:33:03;;;;;;;14.57;13.27;;;12.30;99.90;;;;;;4914566;29;20628;-76
2021/08/29 04:35:50;;;;;;;13.93;12.83;;;12.40;99.90;;;;;;4914396;29;20682;-76
2021/08/29 04:38:18;;;;;;;13.83;12.80;;;12.40;99.90;;;;;;4914578;29;20290;-77
2021/08/29 04:40:47;;;;;;;13.10;12.03;;;12.30;99.90;;;;;;4914456;29;20227;-77
2021/08/29 04:43:14;;;;;;;12.13;11.03;;;12.40;99.90;;;;;;4908023;29;20253;-77
2021/08/29 04:45:41;;;;;;;11.10;10.10;;;12.30;99.90;;;;;;4914037;29;20216;-76
2021/08/29 04:48:12;;;;;;;11.33;10.27;;;12.40;99.90;;;;;;4911292;29;20287;-77
2021/08/29 04:50:40;;;;;;;10.57;9.50;;;12.40;99.90;;;;;;4911885;29;20291;-77
2021/08/29 04:53:09;;;;;;;10.23;9.13;;;12.40;99.90;;;;;;4912130;29;20236;-76
2021/08/29 04:55:36;;;;;;;10.13;9.13;;;12.40;99.90;;;;;;4914303;29;20569;-77
2021/08/29 04:58:03;;;;;;;11.17;10.17;;;12.40;99.90;;;;;;4913468;29;20227;-77
2021/08/29 05:00:30;;;;;;;11.17;10.17;;;12.40;99.90;;;;;;4913731;29;20909;-75
2021/08/29 05:03:02;;;;;;;11.20;10.10;;;12.40;99.90;;;;;;4913522;29;20197;-77
2021/08/29 05:05:29;;;;;;;10.37;9.47;;;12.40;99.90;;;;;;4914129;29;20710;-76
2021/08/29 05:07:57;;;;;;;10.60;9.50;;;12.40;99.90;;;;;;4910247;29;20202;-77
2021/08/29 05:10:27;;;;;;;12.00;10.80;;;12.50;99.90;;;;;;4929385;29;20292;-77
2021/08/29 05:13:07;;;;;;;11.37;10.37;;;12.40;99.90;;;;;;4915320;29;20208;-77
2021/08/29 05:15:36;;;;;;;12.63;11.43;;;12.50;99.90;;;;;;4913041;29;20206;-77
2021/08/29 05:18:08;;;;;;;10.97;9.97;;;12.50;99.90;;;;;;4913432;29;20288;-78
2021/08/29 05:20:50;;;;;;;14.70;13.50;;;12.50;99.90;;;;;;4915023;29;20229;-77
2021/08/29 05:23:52;;;;;;;12.63;11.63;;;12.50;99.90;;;;;;4932203;29;20232;-78
2021/08/29 05:26:46;;;;;;;12.60;11.40;;;12.60;99.90;;;;;;4908483;29;20782;-77
2021/08/29 05:29:14;;;;;;;12.20;11.10;;;12.60;99.90;;;;;;4911392;29;20774;-77
2021/08/29 05:31:48;;;;;;;12.30;11.10;;;12.60;99.90;;;;;;4902415;29;20290;-81
2021/08/29 05:34:32;;;;;;;11.90;10.80;;;12.60;99.90;;;;;;4911699;29;20206;-80
2021/08/29 05:36:59;;;;;;;12.60;11.50;;;12.70;99.90;;;;;;4911777;29;20205;-78
2021/08/29 05:39:30;;;;;;;12.67;11.57;;;12.70;99.90;;;;;;4914277;29;20230;-78
2021/08/29 05:41:58;;;;;;;10.77;9.87;;;12.70;99.90;;;;;;4918663;29;20678;-77
2021/08/29 05:44:36;;;;;;;10.43;9.50;;;12.70;99.90;;;;;;4915893;29;20234;-76
2021/08/29 05:47:04;;;;;;;11.87;10.77;;;12.80;99.90;;;;;;4915348;29;20222;-77
2021/08/29 05:49:36;;;;;;;10.40;9.50;;;12.80;99.90;;;;;;4911343;29;20715;-77
2021/08/29 05:52:04;;;;;;;11.53;10.43;;;12.80;99.90;;;;;;4914061;29;20213;-77
2021/08/29 05:54:33;;;;;;;11.90;10.87;;;12.80;99.90;;;;;;4910557;29;20237;-77
2021/08/29 05:57:02;;;;;;;12.00;10.90;;;12.80;99.90;;;;;;4917307;29;20289;-77
2021/08/29 05:59:32;;;;;;;11.37;10.30;;;13.00;99.90;;;;;;4916590;29;20321;-77
2021/08/29 06:02:05;;;;;;;13.17;11.93;;;13.00;99.90;;;;;;4917822;29;20203;-76
2021/08/29 06:04:36;;;;;;;12.87;11.77;;;12.90;99.90;;;;;;4916737;29;20212;-78
2021/08/29 06:07:14;;;;;;;9.67;8.77;;;13.00;99.90;;;;;;4916478;29;20371;-78
2021/08/29 06:09:47;;;;;;;11.13;10.00;;;13.00;99.90;;;;;;4917574;29;20223;-77
2021/08/29 06:12:15;;;;;;;10.30;9.40;;;13.00;99.90;;;;;;4910835;29;20277;-78
2021/08/29 06:14:43;;;;;;;12.93;11.73;;;13.00;99.90;;;;;;4917536;29;20714;-78
2021/08/29 06:17:13;;;;;;;11.30;10.40;;;13.00;99.90;;;;;;4908374;29;20206;-77
2021/08/29 06:19:41;;;;;;;12.00;11.00;;;13.10;99.90;;;;;;4907509;29;20234;-78
2021/08/29 06:22:08;;;;;;;12.20;11.20;;;13.10;99.90;;;;;;4914035;29;20207;-77
2021/08/29 06:24:46;;;;;;;11.67;10.67;;;13.10;99.90;;;;;;4909767;29;20212;-77
2021/08/29 06:27:35;;;;;;;11.93;10.93;;;13.20;99.90;;;;;;4919041;29;20693;-77
2021/08/29 06:30:09;;;;;;;10.87;9.97;;;13.20;99.90;;;;;;4918481;29;20659;-82
2021/08/29 06:33:08;;;;;;;7.80;7.10;;;13.20;99.90;;;;;;4916297;29;20591;-79
2021/08/29 06:35:43;;;;;;;7.63;6.60;;;13.20;99.90;;;;;;4915000;29;20210;-79
2021/08/29 06:38:11;;;;;;;8.30;7.40;;;13.20;99.90;;;;;;4912599;29;20312;-78
2021/08/29 06:40:38;;;;;;;6.93;6.33;;;13.30;99.90;;;;;;4925943;29;20225;-78
2021/08/29 06:43:07;;;;;;;11.17;10.27;;;13.30;99.90;;;;;;4907557;29;20210;-78
2021/08/29 06:45:52;;;;;;;12.83;11.73;;;13.40;99.90;;;;;;4918279;29;20615;-77
2021/08/29 06:48:37;;;;;;;13.07;12.07;;;13.40;99.90;;;;;;4911473;29;20233;-74
2021/08/29 06:51:24;;;;;;;13.37;12.27;;;13.50;99.90;;;;;;4915449;29;20293;-78
2021/08/29 06:54:09;;;;;;;12.77;11.77;;;13.50;99.90;;;;;;4912429;29;20314;-77
2021/08/29 06:56:55;;;;;;;13.73;12.77;;;13.60;99.90;;;;;;4910603;29;20225;-78
2021/08/29 06:59:27;;;;;;;15.50;14.40;;;13.50;99.90;;;;;;4916463;29;20651;-78
2021/08/29 07:01:58;;;;;;;14.80;13.80;;;13.60;99.90;;;;;;4911899;29;20222;-79
2021/08/29 07:04:33;;;;;;;15.90;14.80;;;13.70;99.90;;;;;;4916332;29;20258;-78
2021/08/29 07:07:12;;;;;;;14.33;13.33;;;13.70;99.90;;;;;;4927158;29;20215;-78
2021/08/29 07:10:06;;;;;;;14.43;13.53;;;13.80;99.90;;;;;;4912453;29;20226;-77
2021/08/29 07:12:42;;;;;;;15.33;14.33;;;13.80;99.90;;;;;;4918376;29;20218;-78
2021/08/29 07:15:23;;;;;;;14.70;13.80;;;13.90;99.90;;;;;;4909623;29;20306;-78
2021/08/29 07:17:53;;;;;;;14.93;14.03;;;13.90;99.90;;;;;;4918951;29;20691;-77
2021/08/29 07:20:40;;;;;;;15.30;14.30;;;13.80;99.90;;;;;;4919062;29;20776;-77
2021/08/29 07:23:45;;;;;;;15.17;14.17;;;13.80;99.90;;;;;;4902325;29;20210;-78
2021/08/29 07:26:31;;;;;;;15.23;14.23;;;13.80;99.90;;;;;;4909526;29;20226;-79
2021/08/29 07:29:16;;;;;;;14.03;13.13;;;13.90;99.90;;;;;;4913902;29;20235;-77
2021/08/29 07:32:03;;;;;;;14.30;13.40;;;13.90;99.90;;;;;;4918759;29;20215;-79
2021/08/29 07:34:30;;;;;;;14.10;13.20;;;14.00;99.90;;;;;;4918873;29;20255;-78
2021/08/29 07:37:17;;;;;;;5.47;4.97;;;14.10;99.90;;;;;;4919874;29;20680;-81
2021/08/29 07:39:44;;;;;;;5.40;4.50;;;14.10;99.90;;;;;;4912938;29;20226;-79
2021/08/29 07:42:11;;;;;;;4.87;4.47;;;14.10;99.90;;;;;;4921270;29;20280;-80
2021/08/29 07:44:39;;;;;;;7.83;7.13;;;14.20;99.90;;;;;;4920536;29;20251;-80
2021/08/29 07:47:07;;;;;;;6.57;6.00;;;14.10;99.90;;;;;;4918962;29;20232;-82
2021/08/29 07:49:34;;;;;;;12.33;11.53;;;14.10;99.90;;;;;;4919066;29;20684;-80
2021/08/29 07:52:01;;;;;;;7.60;7.10;;;14.10;99.90;;;;;;4914961;29;20228;-82
2021/08/29 07:55:08;;;;;;;9.20;8.60;;;14.10;99.90;;;;;;4916241;29;20274;-80
2021/08/29 07:57:59;;;;;;;11.80;11.10;;;14.20;99.90;;;;;;4914654;29;20211;-79
2021/08/29 08:00:30;;;;;;;12.03;11.33;;;14.30;99.90;;;;;;4907272;29;20235;-79
2021/08/29 08:03:21;;;;;;;12.03;11.30;;;14.40;99.90;;;;;;4923276;29;20224;-79
2021/08/29 08:06:04;;;;;;;7.07;6.53;;;14.60;99.90;;;;;;4917798;29;20525;-78
2021/08/29 08:08:50;;;;;;;4.63;4.23;;;14.70;99.90;;;;;;4910875;29;20547;-78
2021/08/29 08:11:35;;;;;;;4.03;3.70;;;14.70;99.90;;;;;;4913235;29;20327;-78
2021/08/29 08:14:02;;;;;;;4.00;3.70;;;14.70;99.90;;;;;;4915407;29;20204;-78
2021/08/29 08:16:30;;;;;;;3.80;3.50;;;14.70;99.90;;;;;;4917070;29;20196;-79
2021/08/29 08:19:00;;;;;;;3.70;3.40;;;14.80;99.90;;;;;;4914442;29;20221;-78
2021/08/29 08:21:27;;;;;;;3.47;3.27;;;14.80;99.90;;;;;;4914675;29;20202;-79
2021/08/29 08:24:12;;;;;;;6.10;5.70;;;14.70;99.90;;;;;;4918522;29;20230;-78
2021/08/29 08:26:42;;;;;;;5.80;5.40;;;14.60;99.90;;;;;;4916227;29;20681;-78
2021/08/29 08:29:26;;;;;;;6.90;6.40;;;14.50;99.90;;;;;;4915106;29;20706;-78
2021/08/29 08:32:12;;;;;;;6.03;5.63;;;14.40;99.90;;;;;;4917187;29;20267;-79
2021/08/29 08:35:12;;;;;;;6.27;5.87;;;14.50;99.90;;;;;;4920535;29;20215;-78
2021/08/29 08:38:12;;;;;;;6.30;5.90;;;14.40;99.90;;;;;;4914058;29;20407;-83
2021/08/29 08:40:55;;;;;;;6.67;6.27;;;14.50;99.90;;;;;;4908067;29;20702;-78
2021/08/29 08:43:42;;;;;;;3.40;3.10;;;14.60;99.90;;;;;;4912876;29;20292;-78
2021/08/29 08:46:28;;;;;;;3.20;3.00;;;14.70;99.90;;;;;;4913005;29;20254;-81
2021/08/29 08:49:20;;;;;;;3.10;2.90;;;14.90;99.90;;;;;;4914981;29;20230;-82
2021/08/29 08:52:15;;;;;;;11.77;11.17;;;15.10;99.90;;;;;;4907289;29;20295;-77
2021/08/29 08:55:02;;;;;;;7.80;7.30;;;15.20;99.90;;;;;;4910849;29;20700;-78
2021/08/29 08:57:49;;;;;;;3.30;3.10;;;15.30;99.90;;;;;;4913477;29;20211;-78
2021/08/29 09:00:35;;;;;;;4.60;4.30;;;15.60;99.90;;;;;;4908443;29;20857;-77
2021/08/29 09:03:21;;;;;;;3.20;3.00;;;15.90;99.90;;;;;;4915671;29;20372;-78
2021/08/29 09:06:10;;;;;;;6.70;6.30;;;16.10;99.90;;;;;;4906641;29;20671;-77
2021/08/29 09:08:39;;;;;;;4.63;4.30;;;16.10;99.90;;;;;;4927681;29;20294;-77
2021/08/29 09:11:06;;;;;;;6.97;6.57;;;16.20;99.90;;;;;;4917038;29;20221;-78
2021/08/29 09:13:57;;;;;;;10.53;9.83;;;16.10;99.90;;;;;;4917717;29;20206;-77
2021/08/29 09:16:26;;;;;;;10.67;10.07;;;16.00;99.90;;;;;;4896189;29;20231;-77
2021/08/29 09:18:59;;;;;;;10.87;10.27;;;15.90;99.90;;;;;;4909850;29;20289;-78
2021/08/29 09:21:28;;;;;;;10.07;9.47;;;15.90;99.90;;;;;;4917826;29;20208;-78
2021/08/29 09:24:02;;;;;;;3.20;3.00;;;15.90;99.90;;;;;;4917560;29;20228;-78
2021/08/29 09:26:45;;;;;;;3.40;3.10;;;16.00;99.90;;;;;;4917552;29;20203;-77
2021/08/29 09:29:42;;;;;;;3.20;3.00;;;16.10;99.90;;;;;;4917037;29;20311;-76
2021/08/29 09:32:11;;;;;;;8.73;8.23;;;16.10;99.90;;;;;;4910102;29;20212;-77
2021/08/29 09:34:57;;;;;;;3.03;2.80;;;16.20;99.90;;;;;;4915014;29;20209;-78
2021/08/29 09:37:26;;;;;;;4.13;3.83;;;16.20;99.90;;;;;;4917958;29;20205;-78
2021/08/29 09:40:17;;;;;;;3.13;2.93;;;16.20;99.90;;;;;;4915249;29;20597;-79
2021/08/29 09:43:05;;;;;;;3.10;2.90;;;16.30;99.90;;;;;;4914481;29;20712;-79
2021/08/29 09:45:40;;;;;;;4.80;4.50;;;16.50;99.90;;;;;;4915072;29;20651;-77
2021/08/29 09:48:27;;;;;;;7.50;7.10;;;16.70;99.90;;;;;;4915866;29;20216;-77
2021/08/29 09:51:13;;;;;;;4.30;4.00;;;16.80;99.90;;;;;;4914626;29;20702;-76
2021/08/29 09:53:52;;;;;;;2.30;2.20;;;17.00;99.90;;;;;;4917274;29;20207;-77
2021/08/29 09:56:50;;;;;;;3.07;2.30;;;17.20;99.90;;;;;;4917980;29;20735;-78
2021/08/29 10:02:23;;;;;;;2.33;2.23;;;16.90;99.90;;;;;;4908314;29;20588;-79
2021/08/29 10:05:13;;;;;;;2.70;2.50;;;16.90;99.90;;;;;;4928031;29;20346;-79
2021/08/29 10:08:04;;;;;;;6.47;6.17;;;16.80;99.90;;;;;;4930217;29;20202;-79
2021/08/29 10:10:41;;;;;;;7.33;6.93;;;16.70;99.90;;;;;;4929178;29;20243;-78
2021/08/29 10:36:39;;;;;;;3.67;3.37;;;16.40;99.90;;;;;;4940720;23;20381;-77
2021/08/29 10:39:25;;;;;;;3.70;3.40;;;16.80;99.90;;;;;;4929380;29;20320;-78
2021/08/29 10:42:09;;;;;;;3.67;3.47;;;17.00;99.90;;;;;;4931082;29;20746;-78
2021/08/29 10:44:56;;;;;;;4.53;4.23;;;17.20;99.90;;;;;;4926943;29;20249;-79
2021/08/29 10:47:45;;;;;;;4.10;3.80;;;17.20;99.90;;;;;;4918582;29;20232;-78
2021/08/29 10:50:32;;;;;;;8.90;8.30;;;17.20;99.90;;;;;;4914271;29;20743;-77
2021/08/29 10:53:00;;;;;;;8.10;7.60;;;17.40;99.90;;;;;;4913628;29;20226;-77
2021/08/29 10:55:30;;;;;;;8.17;7.67;;;17.50;99.90;;;;;;4917250;29;20235;-77
2021/08/29 10:58:03;;;;;;;5.07;4.70;;;17.40;99.90;;;;;;4912852;29;20197;-77
2021/08/29 11:00:33;;;;;;;3.30;3.10;;;17.40;99.90;;;;;;4912962;29;20222;-78
2021/08/29 11:03:27;;;;;;;3.10;2.90;;;17.30;99.90;;;;;;4913411;29;20226;-78
2021/08/29 11:06:44;;;;;;;3.50;3.20;;;17.20;99.90;;;;;;4913407;29;20226;-77
2021/08/29 11:12:33;;;;;;;3.50;3.20;;;17.00;99.90;;;;;;5088761;28;21068;-78
2021/08/29 11:15:07;;;;;;;10.60;10.00;;;16.90;99.90;;;;;;5093575;28;20251;-77
2021/08/29 11:17:35;;;;;;;9.63;9.03;;;16.70;99.90;;;;;;5049044;28;20197;-80
2021/08/29 11:20:16;;;;;;;10.03;9.43;;;16.50;99.90;;;;;;5049293;28;20673;-77
2021/08/29 11:22:52;;;;;;;11.97;11.27;;;16.40;99.90;;;;;;5048435;28;20899;-78
2021/08/29 11:25:37;;;;;;;11.27;10.63;;;16.30;99.90;;;;;;5036490;28;20238;-76
2021/08/29 11:28:31;;;;;;;11.40;10.60;;;16.30;99.90;;;;;;5046310;28;20215;-78
2021/08/29 11:31:52;;;;;;;4.70;4.20;;;16.20;99.90;;;;;;5047695;28;20579;-77
2021/08/29 11:34:22;;;;;;;5.63;5.13;;;16.20;99.90;;;;;;5051975;28;20760;-77
2021/08/29 11:36:49;;;;;;;3.93;3.57;;;16.20;99.90;;;;;;5048338;28;20221;-77
2021/08/29 11:39:34;;;;;;;4.03;3.77;;;16.30;99.90;;;;;;5048194;28;20228;-78
2021/08/29 11:42:13;;;;;;;4.77;4.37;;;16.40;99.90;;;;;;5036055;28;20188;-77
2021/08/29 11:44:42;;;;;;;4.00;3.70;;;16.50;99.90;;;;;;5047888;28;20230;-78
2021/08/29 11:47:11;;;;;;;5.30;4.97;;;16.50;99.90;;;;;;5048318;28;20298;-77
2021/08/29 11:49:54;;;;;;;4.93;4.57;;;16.40;99.90;;;;;;5048088;28;20265;-77
2021/08/29 11:52:28;;;;;;;4.57;4.17;;;16.40;99.90;;;;;;5048037;28;20316;-77
2021/08/29 11:55:08;;;;;;;4.20;3.90;;;16.50;99.90;;;;;;5054430;28;20248;-78
2021/08/29 11:57:49;;;;;;;3.43;3.23;;;16.50;99.90;;;;;;5046779;28;20204;-77
2021/08/29 12:00:19;;;;;;;3.57;3.37;;;16.70;99.90;;;;;;5045254;28;20581;-77
2021/08/29 12:02:48;;;;;;;3.40;3.20;;;17.00;99.90;;;;;;5040321;28;20195;-77
2021/08/29 12:05:21;;;;;;;3.50;3.20;;;17.10;99.90;;;;;;5048111;28;20308;-77
2021/08/29 12:08:05;;;;;;;3.40;3.10;;;17.20;99.90;;;;;;5048922;28;20672;-78
2021/08/29 12:10:52;;;;;;;3.23;3.03;;;17.20;99.90;;;;;;5040684;28;20221;-78
2021/08/29 12:13:40;;;;;;;3.40;3.20;;;17.00;99.90;;;;;;5045483;28;20259;-79
2021/08/29 12:16:12;;;;;;;3.10;2.90;;;16.80;99.90;;;;;;5037829;28;20241;-77
2021/08/29 12:18:52;;;;;;;3.10;2.87;;;16.70;99.90;;;;;;5040274;28;20724;-77
2021/08/29 12:21:34;;;;;;;3.67;3.17;;;16.60;99.90;;;;;;5045503;28;20212;-78
2021/08/29 12:24:34;;;;;;;4.80;4.40;;;16.60;99.90;;;;;;5033006;28;20203;-78
2021/08/29 12:27:03;;;;;;;4.80;4.40;;;16.50;99.90;;;;;;5032729;28;20283;-77
2021/08/29 12:29:31;;;;;;;8.90;8.30;;;16.60;99.90;;;;;;5044198;28;20570;-77
2021/08/29 12:32:09;;;;;;;4.07;3.87;;;16.60;99.90;;;;;;5028571;28;20225;-77
2021/08/29 12:34:37;;;;;;;4.03;3.73;;;16.80;99.90;;;;;;5031605;28;20689;-78
2021/08/29 12:37:05;;;;;;;3.20;3.00;;;16.90;99.90;;;;;;5036448;28;20205;-77
2021/08/29 12:39:33;;;;;;;3.23;2.90;;;16.90;99.90;;;;;;5034782;28;20619;-78
2021/08/29 12:42:20;;;;;;;3.30;3.10;;;16.90;99.90;;;;;;5036259;28;20202;-77
2021/08/29 12:44:57;;;;;;;4.40;4.10;;;16.80;99.90;;;;;;5029624;28;20598;-77
2021/08/29 12:47:27;;;;;;;5.90;5.50;;;16.60;99.90;;;;;;5031303;28;20224;-77
2021/08/29 12:49:55;;;;;;;5.50;5.10;;;16.40;99.90;;;;;;5031562;28;20255;-77
2021/08/29 12:52:25;;;;;;;3.87;3.50;;;16.30;99.90;;;;;;5034378;28;20217;-78
2021/08/29 12:54:52;;;;;;;5.97;5.57;;;16.20;99.90;;;;;;5033572;28;20240;-77
2021/08/29 12:57:23;;;;;;;4.83;4.53;;;16.30;99.90;;;;;;5035879;28;20206;-77
2021/08/29 12:59:52;;;;;;;3.43;3.23;;;16.50;99.90;;;;;;5027592;28;20202;-78
2021/08/29 13:02:21;;;;;;;3.37;3.10;;;16.70;99.90;;;;;;5036387;28;20199;-78
2021/08/29 13:04:52;;;;;;;3.50;3.30;;;16.80;99.90;;;;;;5037917;28;20593;-77
2021/08/29 13:07:27;;;;;;;3.10;2.90;;;16.90;99.90;;;;;;5036091;28;20642;-76
2021/08/29 13:09:56;;;;;;;3.90;3.50;;;17.00;99.90;;;;;;5025724;28;20195;-77
2021/08/29 13:12:29;;;;;;;4.00;3.70;;;17.00;99.90;;;;;;5036305;28;20211;-77
2021/08/29 13:14:59;;;;;;;3.60;3.30;;;17.00;99.90;;;;;;5026248;28;20306;-77
2021/08/29 13:17:26;;;;;;;3.17;2.93;;;17.00;99.90;;;;;;5036544;28;20199;-78
2021/08/29 13:20:02;;;;;;;3.20;3.00;;;17.10;99.90;;;;;;5033993;28;20200;-77
2021/08/29 13:22:32;;;;;;;3.30;3.10;;;17.20;99.90;;;;;;5035731;28;20196;-76
2021/08/29 13:24:59;;;;;;;3.47;3.17;;;17.20;99.90;;;;;;5035214;28;20269;-77
2021/08/29 13:27:30;;;;;;;3.50;3.20;;;17.10;99.90;;;;;;5027947;28;20624;-78
2021/08/29 13:30:00;;;;;;;3.30;3.10;;;17.10;99.90;;;;;;5034965;28;20199;-77
2021/08/29 13:32:33;;;;;;;4.87;4.53;;;16.80;99.90;;;;;;5036367;28;20253;-77
2021/08/29 13:35:12;;;;;;;6.90;6.50;;;16.50;99.90;;;;;;5030756;28;20214;-77
2021/08/29 13:37:43;;;;;;;7.17;6.77;;;16.40;99.90;;;;;;5028751;28;20215;-77
2021/08/29 13:40:11;;;;;;;3.70;3.40;;;16.20;99.90;;;;;;5025201;28;20316;-78
2021/08/29 13:42:39;;;;;;;4.23;3.90;;;16.20;99.90;;;;;;5031709;28;20195;-76
2021/08/29 13:45:11;;;;;;;3.37;3.13;;;16.10;99.90;;;;;;5032344;28;20219;-77
2021/08/29 13:47:38;;;;;;;3.27;3.07;;;16.10;99.90;;;;;;5031925;28;20221;-78
2021/08/29 13:50:06;;;;;;;3.40;3.20;;;16.10;99.90;;;;;;5035803;28;20213;-77
2021/08/29 13:52:38;;;;;;;5.43;5.03;;;16.10;99.90;;;;;;5034448;28;20240;-78
2021/08/29 13:55:08;;;;;;;3.83;3.63;;;16.20;99.90;;;;;;5035585;28;20220;-77
2021/08/29 13:57:35;;;;;;;5.37;4.97;;;16.20;99.90;;;;;;5034680;28;20201;-76
2021/08/29 14:00:02;;;;;;;4.47;4.17;;;16.10;99.90;;;;;;5033732;28;20249;-77
2021/08/29 14:02:39;;;;;;;4.13;3.83;;;16.10;99.90;;;;;;5034776;28;20236;-78
2021/08/29 14:05:07;;;;;;;3.60;3.30;;;16.10;99.90;;;;;;5035220;28;20226;-77
2021/08/29 14:07:34;;;;;;;5.37;4.97;;;16.10;99.90;;;;;;5034077;28;20211;-77
2021/08/29 14:10:02;;;;;;;7.90;7.40;;;16.10;99.90;;;;;;5035076;28;20579;-77
2021/08/29 14:12:29;;;;;;;4.23;3.93;;;16.10;99.90;;;;;;5033906;28;20308;-77
2021/08/29 14:14:59;;;;;;;5.13;4.73;;;16.10;99.90;;;;;;5035233;28;20242;-76
2021/08/29 14:17:26;;;;;;;5.50;5.10;;;16.10;99.90;;;;;;5067604;28;20215;-76
2021/08/29 14:19:55;;;;;;;6.07;5.67;;;16.10;99.90;;;;;;5034011;28;20217;-78
2021/08/29 14:22:23;;;;;;;6.07;5.57;;;16.00;99.90;;;;;;5030165;28;20572;-76
2021/08/29 14:24:50;;;;;;;4.53;4.13;;;16.00;99.90;;;;;;5033218;28;20229;-76
2021/08/29 14:27:19;;;;;;;5.27;4.87;;;16.00;99.90;;;;;;5032900;28;20231;-77
2021/08/29 14:29:45;;;;;;;4.30;3.90;;;16.10;99.90;;;;;;5031340;28;20662;-78
2021/08/29 14:32:12;;;;;;;4.93;4.50;;;16.20;99.90;;;;;;5033416;28;20221;-80